Time;durP1;ratioP1;P1;durP2;ratioP2;P2;SDS_P1;SDS_P2;PMS_P1;PMS_P2;Temp;Humidity;BMP_temperature;BMP_pressure;BME280_temperature;BME280_humidity;BME280_pressure;Samples;Min_cycle;Max_cycle;Signal;HPM_P1;HPM_P2
2021/12/18 00:01:30;;;;;;;12.45;7.60;;;8.30;99.90;;;;;;4996784;28;20026;-78
2021/12/18 00:03:57;;;;;;;13.57;6.47;;;8.30;99.90;;;;;;4995120;28;20213;-79
2021/12/18 00:06:23;;;;;;;10.73;6.57;;;8.30;99.90;;;;;;4996746;28;20049;-79
2021/12/18 00:08:49;;;;;;;9.70;6.28;;;8.30;99.90;;;;;;4997045;28;20014;-79
2021/12/18 00:11:14;;;;;;;9.68;6.10;;;8.40;99.90;;;;;;4996658;28;20140;-79
2021/12/18 00:13:40;;;;;;;16.20;6.70;;;8.40;99.90;;;;;;4996646;28;20025;-79
2021/12/18 00:16:07;;;;;;;9.65;6.50;;;8.40;99.90;;;;;;4994786;28;20501;-79
2021/12/18 00:18:34;;;;;;;11.43;6.90;;;8.50;99.90;;;;;;4996382;28;20106;-80
2021/12/18 00:21:00;;;;;;;10.57;6.43;;;8.50;99.90;;;;;;4996302;28;20358;-79
2021/12/18 00:23:26;;;;;;;15.02;6.53;;;8.40;99.90;;;;;;4996545;28;20034;-79
2021/12/18 00:25:53;;;;;;;11.98;6.85;;;8.40;99.90;;;;;;4996225;28;20026;-77
2021/12/18 00:28:19;;;;;;;13.82;6.57;;;8.40;99.90;;;;;;4996649;28;20514;-80
2021/12/18 00:30:44;;;;;;;10.27;6.32;;;8.40;99.90;;;;;;4996687;28;20034;-79
2021/12/18 00:33:11;;;;;;;11.35;6.55;;;8.40;99.90;;;;;;4996523;28;20042;-76
2021/12/18 00:35:37;;;;;;;11.00;6.13;;;8.30;99.90;;;;;;4995852;28;20109;-80
2021/12/18 00:38:05;;;;;;;12.63;6.55;;;8.30;99.90;;;;;;4996080;28;20372;-80
2021/12/18 00:40:44;;;;;;;12.10;6.93;;;8.30;99.90;;;;;;4995890;28;20022;-79
2021/12/18 00:43:25;;;;;;;10.38;6.25;;;8.30;99.90;;;;;;4996394;28;20049;-78
2021/12/18 00:45:51;;;;;;;10.90;6.75;;;8.30;99.90;;;;;;4996081;28;20161;-78
2021/12/18 00:48:17;;;;;;;10.10;5.90;;;8.30;99.90;;;;;;4995897;28;20026;-79
2021/12/18 00:50:43;;;;;;;13.43;6.43;;;8.30;99.90;;;;;;4996016;28;20483;-77
2021/12/18 00:53:08;;;;;;;10.18;6.60;;;8.30;99.90;;;;;;4996031;28;20029;-79
2021/12/18 00:55:36;;;;;;;11.05;6.85;;;8.20;99.90;;;;;;4995176;28;20039;-78
2021/12/18 00:58:02;;;;;;;11.07;6.03;;;8.30;99.90;;;;;;4995458;28;20073;-79
2021/12/18 01:00:28;;;;;;;11.63;6.78;;;8.30;99.90;;;;;;4994117;28;20041;-78
2021/12/18 01:02:58;;;;;;;10.77;6.72;;;8.30;99.90;;;;;;4995742;28;20014;-79
2021/12/18 01:05:25;;;;;;;13.43;7.03;;;8.20;99.90;;;;;;4995698;28;20499;-79
2021/12/18 01:07:52;;;;;;;14.57;7.10;;;8.20;99.90;;;;;;4995741;28;20058;-78
2021/12/18 01:13:05;;;;;;;9.70;6.05;;;8.30;99.90;;;;;;4993191;28;20033;-77
2021/12/18 01:15:43;;;;;;;13.80;6.13;;;8.30;99.90;;;;;;4994134;28;20077;-78
2021/12/18 01:23:37;;;;;;;8.85;5.85;;;8.30;99.90;;;;;;4995134;28;20500;-77
2021/12/18 01:26:04;;;;;;;11.32;6.13;;;8.40;99.90;;;;;;4993471;28;20438;-78
2021/12/18 01:28:30;;;;;;;9.32;6.13;;;8.30;99.90;;;;;;4994824;28;20085;-79
2021/12/18 01:30:56;;;;;;;9.35;6.10;;;8.40;99.90;;;;;;4995275;28;20030;-76
2021/12/18 01:33:22;;;;;;;7.75;5.65;;;8.30;99.90;;;;;;4995186;28;20460;-74
2021/12/18 01:35:48;;;;;;;8.45;6.10;;;8.30;99.90;;;;;;4994275;28;20419;-79
2021/12/18 01:38:14;;;;;;;10.60;5.45;;;8.30;99.90;;;;;;4994781;28;20030;-78
2021/12/18 01:40:41;;;;;;;9.25;5.95;;;8.30;99.90;;;;;;4993266;28;20092;-78
2021/12/18 01:53:45;;;;;;;7.03;5.05;;;8.40;99.90;;;;;;4995118;28;20081;-78
2021/12/18 01:56:11;;;;;;;10.60;5.45;;;8.40;99.90;;;;;;4993858;28;20118;-78
2021/12/18 01:58:36;;;;;;;7.93;5.05;;;8.50;99.90;;;;;;4994793;28;20101;-77
2021/12/18 02:01:04;;;;;;;8.95;5.05;;;8.50;99.90;;;;;;4994862;28;20096;-77
2021/12/18 02:03:31;;;;;;;11.57;5.57;;;8.50;99.90;;;;;;4993123;28;20126;-78
2021/12/18 02:05:57;;;;;;;7.93;4.63;;;8.50;99.90;;;;;;4992700;28;20082;-79
2021/12/18 02:08:25;;;;;;;10.15;4.90;;;8.50;99.90;;;;;;4994216;28;20026;-79
2021/12/18 02:10:57;;;;;;;8.80;5.50;;;8.50;99.90;;;;;;4993939;28;20081;-78
2021/12/18 02:21:24;;;;;;;7.97;4.68;;;8.50;99.90;;;;;;4993765;28;20093;-78
2021/12/18 02:23:50;;;;;;;7.55;5.43;;;8.50;99.90;;;;;;4994289;28;20058;-78
2021/12/18 02:26:16;;;;;;;20.08;5.55;;;8.50;99.90;;;;;;4993758;28;20102;-77
2021/12/18 02:28:46;;;;;;;10.40;5.65;;;8.50;99.90;;;;;;4993365;28;20024;-78
2021/12/18 02:31:13;;;;;;;12.27;5.78;;;8.50;99.90;;;;;;4993607;28;20065;-77
2021/12/18 02:33:39;;;;;;;9.07;5.32;;;8.40;99.90;;;;;;4993363;28;20145;-75
2021/12/18 02:36:08;;;;;;;7.65;5.10;;;8.50;99.90;;;;;;4990930;28;20046;-76
2021/12/18 02:44:07;;;;;;;8.95;5.07;;;8.40;99.90;;;;;;4993264;28;20106;-78
2021/12/18 02:46:33;;;;;;;19.52;5.38;;;8.40;99.90;;;;;;4993508;28;20518;-78
2021/12/18 02:49:06;;;;;;;8.60;5.22;;;8.40;99.90;;;;;;4991407;28;20428;-78
2021/12/18 02:51:31;;;;;;;11.65;5.15;;;8.40;99.90;;;;;;4993675;28;20025;-78
2021/12/18 02:53:57;;;;;;;9.80;5.00;;;8.40;99.90;;;;;;4992958;28;20026;-79
2021/12/18 02:56:25;;;;;;;8.60;5.45;;;8.40;99.90;;;;;;4992967;28;20113;-78
2021/12/18 02:58:53;;;;;;;7.65;5.00;;;8.40;99.90;;;;;;4982616;28;20060;-78
2021/12/18 03:01:23;;;;;;;9.68;5.22;;;8.40;99.90;;;;;;4993460;28;20379;-78
2021/12/18 03:03:50;;;;;;;13.98;5.72;;;8.30;99.90;;;;;;4993220;28;20015;-78
2021/12/18 03:22:54;;;;;;;9.38;5.95;;;8.40;99.90;;;;;;4992649;28;20109;-78
2021/12/18 03:25:24;;;;;;;12.73;5.82;;;8.40;99.90;;;;;;4991880;28;20659;-78
2021/12/18 03:27:51;;;;;;;;;;;8.30;99.90;;;;;;4993377;28;20063;-79
2021/12/18 03:30:17;;;;;;;16.15;5.78;;;8.30;99.90;;;;;;4992863;28;19906;-79
2021/12/18 03:32:44;;;;;;;9.30;6.00;;;8.30;99.90;;;;;;4993202;28;20031;-79
2021/12/18 03:35:10;;;;;;;10.32;6.13;;;8.20;99.90;;;;;;4992939;28;20027;-78
2021/12/18 03:37:37;;;;;;;10.38;6.28;;;8.20;99.90;;;;;;4982530;28;20383;-77
2021/12/18 03:40:05;;;;;;;10.23;5.15;;;8.20;99.90;;;;;;4973630;28;20089;-78
2021/12/18 03:42:32;;;;;;;11.85;5.55;;;8.20;99.90;;;;;;4992259;28;20026;-78
2021/12/18 03:44:58;;;;;;;21.23;8.65;;;8.30;99.90;;;;;;4993015;28;20549;-78
2021/12/18 03:47:24;;;;;;;10.02;5.80;;;8.30;99.90;;;;;;4992960;28;20030;-79
2021/12/18 03:49:50;;;;;;;18.90;6.95;;;8.30;99.90;;;;;;4993490;28;20062;-79
2021/12/18 03:52:15;;;;;;;9.55;6.10;;;8.30;99.90;;;;;;4992652;28;20368;-77
2021/12/18 03:54:41;;;;;;;12.93;6.57;;;8.30;99.90;;;;;;4992704;28;20045;-78
2021/12/18 03:57:07;;;;;;;10.32;6.28;;;8.30;99.90;;;;;;4992170;28;20105;-78
2021/12/18 03:59:33;;;;;;;9.88;6.13;;;8.30;99.90;;;;;;4993019;28;20030;-78
2021/12/18 04:01:58;;;;;;;13.15;6.55;;;8.30;99.90;;;;;;4992363;28;20026;-77
2021/12/18 04:04:24;;;;;;;8.00;5.60;;;8.20;99.90;;;;;;4992939;28;20040;-78
2021/12/18 04:06:50;;;;;;;8.73;6.10;;;8.20;99.90;;;;;;4992894;28;20031;-78
2021/12/18 04:09:16;;;;;;;11.93;6.13;;;8.20;99.90;;;;;;4992903;28;20026;-78
2021/12/18 04:11:42;;;;;;;12.55;6.40;;;8.10;99.90;;;;;;4991237;28;20386;-78
2021/12/18 04:14:10;;;;;;;11.65;6.20;;;8.10;99.90;;;;;;4991886;28;20570;-78
2021/12/18 04:16:36;;;;;;;10.73;6.38;;;8.10;99.90;;;;;;4992728;28;20034;-78
2021/12/18 04:19:03;;;;;;;10.98;6.47;;;8.10;99.90;;;;;;4992903;28;20022;-76
2021/12/18 04:21:30;;;;;;;13.90;5.88;;;8.00;99.90;;;;;;4992921;28;20092;-77
2021/12/18 04:23:56;;;;;;;11.75;6.88;;;8.00;99.90;;;;;;4992490;28;20110;-77
2021/12/18 04:26:22;;;;;;;13.88;6.70;;;8.00;99.90;;;;;;4992323;28;20057;-78
2021/12/18 04:28:48;;;;;;;14.25;5.88;;;8.00;99.90;;;;;;4992832;28;20026;-77
2021/12/18 04:31:14;;;;;;;12.35;6.10;;;8.10;99.90;;;;;;4992848;28;20037;-78
2021/12/18 04:33:40;;;;;;;10.80;6.10;;;8.10;99.90;;;;;;4992991;28;20026;-77
2021/12/18 04:36:07;;;;;;;10.75;6.15;;;8.10;99.90;;;;;;4995757;28;20386;-78
2021/12/18 04:38:33;;;;;;;11.57;6.15;;;8.10;99.90;;;;;;4996295;28;20022;-78
2021/12/18 04:40:59;;;;;;;10.25;6.35;;;8.10;99.90;;;;;;4994850;28;20053;-77
2021/12/18 04:43:25;;;;;;;8.25;5.95;;;8.10;99.90;;;;;;4995893;28;20463;-78
2021/12/18 04:45:51;;;;;;;17.48;6.05;;;8.10;99.90;;;;;;4995861;28;20034;-77
2021/12/18 04:48:16;;;;;;;10.57;6.18;;;8.10;99.90;;;;;;4995411;28;20038;-78
2021/12/18 04:50:42;;;;;;;9.90;5.80;;;8.00;99.90;;;;;;4995203;28;20530;-77
2021/12/18 04:53:08;;;;;;;8.38;5.30;;;8.00;99.90;;;;;;4995431;28;20084;-77
2021/12/18 04:55:34;;;;;;;10.10;5.60;;;8.00;99.90;;;;;;4995268;28;20490;-77
2021/12/18 04:58:00;;;;;;;11.75;6.05;;;8.00;99.90;;;;;;4995237;28;20030;-77
2021/12/18 05:00:35;;;;;;;13.15;6.50;;;8.00;99.90;;;;;;4995978;28;20528;-77
2021/12/18 05:03:05;;;;;;;12.15;6.28;;;8.00;99.90;;;;;;4995495;28;20481;-77
2021/12/18 05:05:30;;;;;;;17.88;6.72;;;8.00;99.90;;;;;;4995262;28;20158;-76
2021/12/18 05:07:56;;;;;;;10.40;6.18;;;8.00;99.90;;;;;;4995633;28;20054;-77
2021/12/18 05:10:22;;;;;;;9.15;5.88;;;8.10;99.90;;;;;;4995068;28;20109;-77
2021/12/18 05:12:47;;;;;;;10.27;5.95;;;8.10;99.90;;;;;;4994953;28;20022;-77
2021/12/18 05:15:13;;;;;;;9.25;5.90;;;8.10;99.90;;;;;;4994597;28;20027;-77
2021/12/18 05:17:39;;;;;;;9.13;5.47;;;8.10;99.90;;;;;;4995552;28;20038;-77
2021/12/18 05:20:06;;;;;;;10.05;5.82;;;8.10;99.90;;;;;;4994598;28;20081;-77
2021/12/18 05:22:32;;;;;;;11.75;6.47;;;8.10;99.90;;;;;;4995270;28;20053;-77
2021/12/18 05:24:57;;;;;;;10.68;6.03;;;8.10;99.90;;;;;;4995215;28;20474;-77
2021/12/18 05:27:23;;;;;;;14.13;5.97;;;8.10;99.90;;;;;;4995159;28;20041;-77
2021/12/18 05:29:49;;;;;;;11.88;6.68;;;8.10;99.90;;;;;;4994558;28;20069;-77
2021/12/18 05:32:14;;;;;;;10.70;6.85;;;8.00;99.90;;;;;;4995215;28;20096;-76
2021/12/18 05:34:40;;;;;;;11.25;6.90;;;8.00;99.90;;;;;;4994588;28;20047;-77
2021/12/18 05:37:30;;;;;;;11.40;6.03;;;8.00;99.90;;;;;;4994976;28;20049;-78
2021/12/18 05:39:56;;;;;;;8.95;5.97;;;8.00;99.90;;;;;;4993286;28;20433;-77
2021/12/18 05:42:21;;;;;;;9.82;6.28;;;8.00;99.90;;;;;;4994848;28;20019;-76
2021/12/18 05:44:47;;;;;;;9.38;6.30;;;8.00;99.90;;;;;;4993593;28;20137;-76
2021/12/18 05:47:13;;;;;;;10.30;5.30;;;8.00;99.90;;;;;;4994742;28;20031;-77
2021/12/18 05:49:38;;;;;;;8.95;5.90;;;8.00;99.90;;;;;;4995084;28;20038;-77
2021/12/18 05:52:06;;;;;;;8.05;5.93;;;8.00;99.90;;;;;;4992588;28;20034;-77
2021/12/18 05:54:35;;;;;;;9.50;5.63;;;8.00;99.90;;;;;;4993970;28;20030;-77
2021/12/18 05:57:05;;;;;;;14.43;7.75;;;8.00;99.90;;;;;;4992351;28;20030;-77
2021/12/18 05:59:32;;;;;;;19.40;7.20;;;8.00;99.90;;;;;;4993153;28;20050;-77
2021/12/18 06:01:58;;;;;;;15.18;6.55;;;7.90;99.90;;;;;;4993078;28;20034;-77
2021/12/18 06:04:23;;;;;;;13.90;6.40;;;7.90;99.90;;;;;;4992787;28;20491;-78
2021/12/18 06:06:49;;;;;;;14.82;5.95;;;7.80;99.90;;;;;;4993777;28;20072;-77
2021/12/18 06:09:15;;;;;;;17.65;6.75;;;7.80;99.90;;;;;;4993755;28;20026;-77
2021/12/18 06:11:41;;;;;;;11.93;6.85;;;7.80;99.90;;;;;;4993920;28;20030;-77
2021/12/18 06:14:07;;;;;;;12.80;7.00;;;7.80;99.90;;;;;;4993955;28;20109;-77
2021/12/18 06:16:32;;;;;;;13.55;7.15;;;7.70;99.90;;;;;;4992770;28;20109;-77
2021/12/18 06:18:58;;;;;;;18.00;7.43;;;7.70;99.90;;;;;;4992814;28;20026;-77
2021/12/18 06:21:24;;;;;;;19.40;7.85;;;7.70;99.90;;;;;;4994193;28;20044;-77
2021/12/18 06:23:52;;;;;;;13.70;7.32;;;7.60;99.90;;;;;;4993920;28;20026;-77
2021/12/18 06:26:20;;;;;;;14.82;7.18;;;7.60;99.90;;;;;;4994116;28;20113;-77
2021/12/18 06:28:46;;;;;;;9.82;6.65;;;7.60;99.90;;;;;;4994271;28;20026;-77
2021/12/18 06:31:12;;;;;;;11.77;7.60;;;7.60;99.90;;;;;;4994093;28;20371;-77
2021/12/18 06:33:38;;;;;;;14.25;8.05;;;7.50;99.90;;;;;;4994064;28;20026;-76
2021/12/18 06:36:04;;;;;;;11.52;7.15;;;7.60;99.90;;;;;;4994086;28;20381;-77
2021/12/18 06:38:30;;;;;;;25.88;8.25;;;7.50;99.90;;;;;;4992633;28;20018;-77
2021/12/18 06:40:56;;;;;;;13.60;8.25;;;7.50;99.90;;;;;;4994024;28;20037;-78
2021/12/18 06:43:22;;;;;;;15.55;8.07;;;7.50;99.90;;;;;;4994152;28;20387;-77
2021/12/18 06:45:47;;;;;;;17.20;8.40;;;7.50;99.90;;;;;;4993768;28;20566;-77
2021/12/18 06:48:13;;;;;;;13.23;8.27;;;7.50;99.90;;;;;;4993648;28;20471;-77
2021/12/18 06:50:39;;;;;;;14.90;7.78;;;7.50;99.90;;;;;;4994027;28;20070;-77
2021/12/18 06:53:05;;;;;;;14.18;8.52;;;7.40;99.90;;;;;;4993868;28;20030;-76
2021/12/18 06:55:32;;;;;;;14.50;7.50;;;7.40;99.90;;;;;;4993729;28;20439;-77
2021/12/18 06:57:58;;;;;;;16.73;7.80;;;7.40;99.90;;;;;;4993413;28;20105;-76
2021/12/18 07:00:26;;;;;;;18.75;7.75;;;7.40;99.90;;;;;;4993291;28;20034;-76
2021/12/18 07:02:52;;;;;;;12.35;7.22;;;7.40;99.90;;;;;;4993431;28;20455;-78
2021/12/18 07:05:18;;;;;;;14.70;7.28;;;7.40;99.90;;;;;;4992566;28;20085;-77
2021/12/18 07:07:44;;;;;;;12.82;7.55;;;7.40;99.90;;;;;;4993236;28;20021;-77
2021/12/18 07:10:12;;;;;;;11.80;7.57;;;7.50;99.90;;;;;;4993361;28;20026;-77
2021/12/18 07:12:38;;;;;;;13.00;7.72;;;7.80;99.90;;;;;;4993319;28;20039;-77
2021/12/18 07:15:05;;;;;;;13.60;7.07;;;8.00;99.90;;;;;;4993843;28;20030;-77
2021/12/18 07:17:31;;;;;;;14.57;8.23;;;8.30;99.90;;;;;;4993503;28;20027;-77
2021/12/18 07:19:57;;;;;;;16.98;7.75;;;8.60;99.90;;;;;;4993474;28;20088;-77
2021/12/18 07:22:22;;;;;;;12.57;7.43;;;8.80;99.90;;;;;;4993155;28;20115;-76
2021/12/18 07:24:48;;;;;;;11.73;7.00;;;9.00;99.90;;;;;;4993354;28;20022;-77
2021/12/18 07:27:14;;;;;;;17.00;9.88;;;9.50;99.90;;;;;;4993467;28;20032;-77
2021/12/18 07:29:40;;;;;;;19.75;8.98;;;9.90;99.90;;;;;;4992767;28;20471;-77
2021/12/18 07:32:06;;;;;;;12.85;7.03;;;10.20;99.90;;;;;;4992586;28;20054;-77
2021/12/18 07:34:31;;;;;;;11.77;7.78;;;10.50;99.90;;;;;;4992384;28;20109;-77
2021/12/18 07:36:57;;;;;;;17.88;7.63;;;10.70;99.90;;;;;;4989687;28;20499;-77
2021/12/18 07:39:23;;;;;;;14.05;6.40;;;10.90;99.90;;;;;;4992946;28;20105;-78
2021/12/18 07:41:49;;;;;;;12.18;7.22;;;11.10;99.90;;;;;;4992659;28;20018;-77
2021/12/18 07:44:14;;;;;;;15.23;8.85;;;11.10;99.90;;;;;;4989968;28;20486;-77
2021/12/18 07:46:40;;;;;;;10.90;7.57;;;11.30;99.90;;;;;;4989740;28;20468;-78
2021/12/18 07:49:07;;;;;;;11.50;7.10;;;11.60;99.90;;;;;;4988335;28;20470;-77
2021/12/18 07:51:33;;;;;;;12.82;9.07;;;11.60;99.90;;;;;;4992355;28;20027;-77
2021/12/18 07:53:59;;;;;;;13.60;8.30;;;11.90;99.90;;;;;;4992106;28;20022;-77
2021/12/18 07:56:25;;;;;;;15.57;7.70;;;12.10;99.90;;;;;;4991298;28;20035;-77
2021/12/18 07:58:51;;;;;;;10.82;6.35;;;12.20;99.90;;;;;;4992020;28;20471;-77
2021/12/18 08:01:17;;;;;;;12.82;8.73;;;12.50;99.90;;;;;;4991709;28;20026;-77
2021/12/18 08:03:42;;;;;;;9.60;6.13;;;12.70;99.90;;;;;;4992770;28;20042;-78
2021/12/18 08:06:08;;;;;;;10.73;6.30;;;13.20;99.90;;;;;;4992744;28;20495;-77
2021/12/18 08:08:34;;;;;;;9.40;5.47;;;13.70;99.90;;;;;;4994155;28;20396;-78
2021/12/18 08:11:00;;;;;;;10.20;6.85;;;13.70;99.90;;;;;;4996781;28;20037;-78
2021/12/18 08:13:26;;;;;;;11.63;6.25;;;13.80;99.90;;;;;;4993643;28;20023;-78
2021/12/18 08:15:52;;;;;;;15.77;6.35;;;13.20;99.90;;;;;;4993964;28;20169;-78
2021/12/18 08:18:17;;;;;;;11.85;5.72;;;13.00;99.90;;;;;;4994129;28;20112;-77
2021/12/18 08:20:43;;;;;;;7.80;5.13;;;13.30;99.90;;;;;;4995342;28;20395;-78
2021/12/18 08:23:09;;;;;;;9.90;6.05;;;13.80;99.90;;;;;;4994372;28;20030;-78
2021/12/18 08:25:35;;;;;;;9.90;6.20;;;14.20;99.90;;;;;;4995585;28;20058;-77
2021/12/18 08:28:02;;;;;;;26.08;6.75;;;14.30;99.90;;;;;;4992081;28;20395;-78
2021/12/18 08:30:29;;;;;;;9.73;5.53;;;14.40;99.90;;;;;;4994506;28;20015;-79
2021/12/18 08:32:56;;;;;;;10.23;5.60;;;14.90;99.90;;;;;;4991330;28;20024;-78
2021/12/18 08:35:22;;;;;;;15.82;5.88;;;15.20;99.90;;;;;;4994712;28;20574;-78
2021/12/18 08:37:48;;;;;;;20.83;11.15;;;15.40;99.90;;;;;;4993584;28;20101;-78
2021/12/18 08:40:13;;;;;;;9.25;5.20;;;15.80;99.90;;;;;;4992935;28;20037;-79
2021/12/18 08:42:39;;;;;;;9.40;6.07;;;16.10;99.20;;;;;;4995084;28;20351;-77
2021/12/18 08:45:06;;;;;;;11.13;6.57;;;16.00;98.20;;;;;;4995545;28;20037;-79
2021/12/18 08:47:32;;;;;;;6.65;5.05;;;14.90;98.50;;;;;;4994536;28;20025;-79
2021/12/18 08:50:01;;;;;;;10.85;6.85;;;14.40;99.10;;;;;;4995413;28;20418;-79
2021/12/18 08:52:26;;;;;;;8.65;6.22;;;14.30;99.60;;;;;;4994326;28;20105;-79
2021/12/18 08:54:52;;;;;;;9.27;4.50;;;14.60;99.20;;;;;;4997981;28;20494;-78
2021/12/18 08:57:18;;;;;;;7.65;5.45;;;15.00;98.90;;;;;;4995138;28;20360;-78
2021/12/18 08:59:44;;;;;;;18.55;7.63;;;15.40;98.00;;;;;;4995240;28;20128;-77
2021/12/18 09:02:11;;;;;;;12.13;5.70;;;15.40;97.80;;;;;;4995401;28;20035;-75
2021/12/18 09:04:37;;;;;;;8.65;5.43;;;15.20;98.30;;;;;;4995558;28;20434;-78
2021/12/18 09:07:04;;;;;;;5.72;4.28;;;15.70;97.60;;;;;;4995900;28;20035;-78
2021/12/18 09:09:30;;;;;;;9.70;4.82;;;15.80;97.10;;;;;;4995391;28;20027;-78
2021/12/18 09:11:56;;;;;;;9.38;4.70;;;15.80;97.30;;;;;;4995824;28;20061;-77
2021/12/18 09:14:21;;;;;;;6.80;4.15;;;16.00;96.90;;;;;;4995052;28;20125;-75
2021/12/18 09:16:49;;;;;;;10.40;4.30;;;16.20;96.50;;;;;;4994750;28;20441;-76
2021/12/18 09:19:14;;;;;;;9.18;4.70;;;16.20;96.00;;;;;;4992211;28;20054;-78
2021/12/18 09:21:40;;;;;;;11.82;7.13;;;16.30;95.70;;;;;;4993131;28;20062;-77
2021/12/18 09:24:06;;;;;;;13.20;5.25;;;16.30;95.50;;;;;;4991968;28;20030;-77
2021/12/18 09:26:32;;;;;;;31.25;14.63;;;16.10;95.50;;;;;;4995483;28;20096;-76
2021/12/18 09:28:58;;;;;;;17.98;9.90;;;16.20;95.30;;;;;;4995645;28;20030;-77
2021/12/18 09:31:27;;;;;;;9.30;4.63;;;15.80;95.60;;;;;;4992326;28;20097;-77
2021/12/18 09:33:52;;;;;;;12.75;5.60;;;15.90;95.20;;;;;;4994695;28;20052;-77
2021/12/18 09:36:18;;;;;;;12.32;5.72;;;15.60;94.90;;;;;;4993708;28;20042;-77
2021/12/18 09:38:44;;;;;;;6.53;4.45;;;15.30;95.50;;;;;;4994831;28;20026;-78
2021/12/18 09:41:10;;;;;;;9.07;4.82;;;15.20;95.50;;;;;;4994899;28;20054;-77
2021/12/18 09:43:36;;;;;;;9.30;4.35;;;14.90;95.80;;;;;;4995093;28;20045;-77
2021/12/18 09:46:08;;;;;;;15.63;6.13;;;15.30;95.00;;;;;;4994982;28;20073;-77
2021/12/18 09:48:35;;;;;;;;;;;15.50;95.00;;;;;;4995643;28;20026;-77
2021/12/18 09:51:07;;;;;;;14.20;4.70;;;15.50;94.30;;;;;;4994971;28;19906;-77
2021/12/18 09:53:34;;;;;;;11.82;4.60;;;15.60;94.50;;;;;;5004538;28;20026;-76
2021/12/18 09:55:59;;;;;;;10.98;4.75;;;15.80;94.30;;;;;;4994576;28;20074;-75
2021/12/18 09:58:25;;;;;;;8.95;5.20;;;15.80;93.40;;;;;;4999762;28;20010;-74
2021/12/18 10:00:51;;;;;;;5.72;3.92;;;15.40;93.50;;;;;;4997790;28;20039;-76
2021/12/18 10:03:16;;;;;;;7.43;4.57;;;15.30;93.90;;;;;;4998095;28;20121;-76
2021/12/18 10:05:42;;;;;;;20.73;11.65;;;15.60;93.90;;;;;;4995985;28;20057;-76
2021/12/18 10:08:18;;;;;;;7.32;4.10;;;16.00;93.90;;;;;;5000013;28;20014;-76
2021/12/18 10:11:07;;;;;;;26.98;13.82;;;16.10;92.80;;;;;;5008514;28;20026;-77
2021/12/18 10:13:54;;;;;;;8.40;4.53;;;16.20;93.40;;;;;;5015289;28;20470;-76
2021/12/18 10:16:21;;;;;;;10.73;3.67;;;16.30;92.10;;;;;;4997649;28;20046;-80
2021/12/18 10:18:47;;;;;;;8.93;5.10;;;16.60;91.80;;;;;;4994328;28;20470;-78
2021/12/18 10:21:22;;;;;;;10.65;4.72;;;16.60;91.50;;;;;;4996032;28;20030;-77
2021/12/18 10:23:50;;;;;;;6.25;3.85;;;16.50;92.00;;;;;;4996090;28;20019;-75
2021/12/18 10:26:36;;;;;;;5.97;3.45;;;16.90;91.50;;;;;;4990911;28;20031;-79
2021/12/18 10:29:21;;;;;;;6.60;3.40;;;17.40;90.60;;;;;;4994036;28;20378;-75
2021/12/18 10:31:47;;;;;;;8.13;4.00;;;17.20;90.40;;;;;;4993235;28;20019;-78
2021/12/18 10:34:19;;;;;;;5.97;3.42;;;17.70;90.10;;;;;;4993689;28;20042;-75
2021/12/18 10:37:09;;;;;;;15.27;8.68;;;17.90;88.80;;;;;;4993387;28;20030;-78
2021/12/18 10:39:37;;;;;;;7.80;4.78;;;18.50;88.00;;;;;;4994046;28;20447;-77
2021/12/18 10:42:28;;;;;;;29.45;13.10;;;18.70;86.70;;;;;;4993946;28;20046;-83
2021/12/18 10:45:14;;;;;;;31.63;10.85;;;19.00;86.30;;;;;;4981377;28;20121;-83
2021/12/18 10:47:55;;;;;;;21.73;8.55;;;18.90;85.30;;;;;;4994528;28;20041;-77
2021/12/18 10:50:29;;;;;;;14.18;6.70;;;18.40;84.10;;;;;;4994771;28;20041;-81
2021/12/18 10:53:04;;;;;;;10.68;4.93;;;18.50;84.70;;;;;;4994231;28;20045;-76
2021/12/18 10:55:35;;;;;;;4.43;2.58;;;18.70;84.10;;;;;;4993220;28;20120;-78
2021/12/18 10:58:02;;;;;;;6.72;4.50;;;18.50;81.10;;;;;;4993757;28;20386;-77
2021/12/18 11:00:45;;;;;;;8.68;4.15;;;18.10;82.10;;;;;;4993253;28;20023;-78
2021/12/18 11:03:21;;;;;;;6.32;4.25;;;18.20;83.10;;;;;;4992978;28;20022;-78
2021/12/18 11:06:07;;;;;;;9.18;4.00;;;18.30;82.00;;;;;;4991888;28;20065;-79
2021/12/18 11:08:37;;;;;;;6.00;3.28;;;18.40;81.70;;;;;;4992416;28;20031;-77
2021/12/18 11:13:50;;;;;;;12.20;5.32;;;18.90;82.20;;;;;;4993996;28;20153;-85
2021/12/18 11:16:17;;;;;;;6.50;4.13;;;19.00;86.20;;;;;;4992657;28;20092;-86
2021/12/18 11:18:44;;;;;;;11.00;4.00;;;18.90;90.50;;;;;;4994021;28;20023;-84
2021/12/18 11:21:10;;;;;;;11.65;4.90;;;18.80;91.60;;;;;;4993052;28;20572;-85
2021/12/18 11:23:55;;;;;;;10.13;4.72;;;18.80;92.20;;;;;;4993297;28;20105;-83
2021/12/18 11:26:28;;;;;;;8.55;4.90;;;18.80;92.50;;;;;;4993560;28;20026;-84
2021/12/18 11:28:54;;;;;;;7.82;4.22;;;18.90;92.70;;;;;;4993118;28;20459;-85
2021/12/18 11:31:21;;;;;;;8.38;4.35;;;19.10;92.50;;;;;;4993134;28;20026;-85
2021/12/18 11:33:47;;;;;;;10.75;4.45;;;19.40;92.00;;;;;;4993012;28;20077;-84
2021/12/18 11:36:12;;;;;;;7.82;5.07;;;19.30;92.00;;;;;;4991873;28;20052;-82
2021/12/18 11:38:42;;;;;;;6.95;4.68;;;19.30;92.50;;;;;;4992641;28;20033;-79
2021/12/18 11:41:17;;;;;;;10.07;4.65;;;19.50;91.90;;;;;;4992842;28;20018;-78
2021/12/18 11:43:46;;;;;;;13.32;6.05;;;19.30;91.70;;;;;;4993365;28;20026;-78
2021/12/18 11:46:32;;;;;;;10.48;5.10;;;19.10;90.80;;;;;;4996856;28;20034;-76
2021/12/18 11:49:07;;;;;;;7.15;4.72;;;18.90;89.40;;;;;;4993315;28;20419;-77
2021/12/18 11:51:33;;;;;;;8.77;3.70;;;18.90;90.00;;;;;;4995056;28;20053;-78
2021/12/18 11:54:03;;;;;;;8.30;4.40;;;18.70;85.60;;;;;;4995108;28;20490;-78
2021/12/18 11:56:48;;;;;;;7.82;4.00;;;18.40;90.20;;;;;;4995195;28;20065;-82
2021/12/18 11:59:14;;;;;;;11.90;4.80;;;17.90;89.00;;;;;;4996518;28;20105;-88
2021/12/18 12:01:44;;;;;;;7.72;4.47;;;17.50;91.70;;;;;;4995914;28;20563;-89
2021/12/18 12:04:11;;;;;;;7.93;5.47;;;17.30;92.80;;;;;;4996511;28;20030;-88
2021/12/18 12:06:41;;;;;;;13.95;4.95;;;16.80;93.00;;;;;;4996445;28;20022;-89
2021/12/18 12:11:58;;;;;;;7.75;4.88;;;16.00;93.90;;;;;;4994622;28;20030;-83
2021/12/18 12:14:28;;;;;;;12.73;5.68;;;15.90;94.20;;;;;;4995749;28;20110;-87
2021/12/18 12:17:12;;;;;;;10.90;5.85;;;15.70;94.10;;;;;;4996855;28;20466;-87
2021/12/18 12:19:41;;;;;;;14.82;5.55;;;15.30;94.40;;;;;;4991517;28;20026;-87
2021/12/18 12:22:29;;;;;;;5.97;4.40;;;15.20;94.90;;;;;;4996220;28;20110;-85
2021/12/18 12:24:58;;;;;;;12.18;5.32;;;15.00;95.50;;;;;;4996354;28;20025;-83
2021/12/18 12:27:42;;;;;;;10.75;5.43;;;14.90;96.20;;;;;;4989850;28;20030;-88
2021/12/18 12:30:27;;;;;;;7.55;4.68;;;14.80;96.90;;;;;;4995824;28;20125;-87
2021/12/18 12:33:07;;;;;;;9.80;4.50;;;14.70;96.60;;;;;;4996501;28;20018;-88
2021/12/18 12:35:52;;;;;;;7.80;4.60;;;14.60;96.70;;;;;;4997442;28;20053;-86
2021/12/18 12:38:23;;;;;;;6.30;4.32;;;14.50;96.60;;;;;;4993582;28;20479;-87
2021/12/18 12:40:48;;;;;;;12.48;4.95;;;14.40;96.20;;;;;;4997528;28;20026;-81
2021/12/18 12:43:17;;;;;;;7.95;4.50;;;14.30;96.60;;;;;;4995762;28;20082;-87
2021/12/18 12:45:46;;;;;;;8.48;4.93;;;14.10;97.00;;;;;;4996355;28;20026;-89
2021/12/18 12:48:12;;;;;;;13.07;5.32;;;14.00;97.40;;;;;;4994901;28;20018;-88
2021/12/18 12:50:39;;;;;;;8.43;4.90;;;13.90;97.70;;;;;;4996363;28;20027;-89
2021/12/18 12:53:07;;;;;;;8.27;4.97;;;13.90;97.80;;;;;;4996611;28;20045;-87
2021/12/18 12:55:47;;;;;;;11.10;5.35;;;13.80;97.80;;;;;;4986791;28;20039;-88
2021/12/18 12:58:18;;;;;;;8.00;5.15;;;13.70;97.50;;;;;;4978319;28;20030;-88
2021/12/18 13:00:46;;;;;;;9.30;5.20;;;13.60;98.00;;;;;;4995155;28;20030;-86
2021/12/18 13:03:16;;;;;;;10.85;4.95;;;13.50;98.10;;;;;;4992797;28;20023;-88
2021/12/18 13:05:52;;;;;;;9.65;4.88;;;13.40;98.40;;;;;;4995844;28;20105;-88
2021/12/18 13:08:19;;;;;;;8.30;5.28;;;13.40;98.50;;;;;;4993576;28;20046;-89
2021/12/18 13:10:47;;;;;;;8.35;4.68;;;13.30;98.50;;;;;;4994290;28;20037;-87
2021/12/18 13:13:18;;;;;;;6.90;4.55;;;13.30;98.60;;;;;;4993544;28;20505;-88
2021/12/18 13:15:56;;;;;;;9.98;5.45;;;13.20;98.70;;;;;;4993754;28;20034;-88
2021/12/18 13:18:25;;;;;;;8.20;5.07;;;13.20;98.70;;;;;;4994022;28;20499;-87
2021/12/18 13:20:58;;;;;;;9.82;5.65;;;13.20;98.90;;;;;;4993754;28;20110;-87
2021/12/18 13:23:48;;;;;;;10.45;5.47;;;13.10;98.30;;;;;;4994742;28;20030;-87
2021/12/18 13:26:35;;;;;;;9.45;5.05;;;13.10;98.00;;;;;;4996070;28;20030;-88
2021/12/18 13:29:10;;;;;;;9.23;5.18;;;13.00;98.20;;;;;;4995428;28;20419;-86
2021/12/18 13:31:43;;;;;;;9.50;5.90;;;12.90;98.60;;;;;;4995848;28;20105;-88
2021/12/18 13:34:11;;;;;;;9.85;5.30;;;12.90;99.50;;;;;;4995704;28;20273;-88
2021/12/18 13:36:37;;;;;;;7.80;4.80;;;12.80;99.90;;;;;;4995977;28;20569;-87
2021/12/18 13:39:09;;;;;;;13.43;6.50;;;12.80;99.90;;;;;;4995737;28;20026;-86
2021/12/18 13:41:34;;;;;;;10.98;5.43;;;12.70;99.90;;;;;;4995136;28;20081;-87
2021/12/18 13:44:00;;;;;;;9.77;5.40;;;12.70;99.90;;;;;;4995356;28;20070;-87
2021/12/18 13:46:31;;;;;;;14.93;7.38;;;12.70;99.90;;;;;;4995228;28;20033;-86